createdAt,value
2018-04-14T10:31:52.997Z,23.10
2018-04-14T10:34:23.904Z,23.60
2018-04-14T10:37:16.643Z,24.80
2018-04-14T10:39:48.116Z,26.70
2018-04-14T10:42:19.763Z,28.60
2018-04-14T10:44:59.508Z,27.90
2018-04-14T10:47:35.856Z,26.80
2018-04-14T10:50:06.083Z,26.80
2018-04-14T10:52:38.698Z,26.60
2018-04-14T10:55:10.260Z,27.50
2018-04-14T10:57:41.675Z,29.00
2018-04-14T11:00:12.831Z,29.00
2018-04-14T11:02:52.072Z,30.60
2018-04-14T11:08:14.808Z,30.20
2018-04-14T11:10:44.648Z,28.70
2018-04-14T11:13:17.231Z,27.40
2018-04-14T11:15:48.291Z,27.30
2018-04-14T11:18:20.246Z,28.10
2018-04-14T11:20:52.478Z,29.80
2018-04-14T11:23:24.405Z,29.70
2018-04-14T11:25:54.042Z,28.70
2018-04-14T11:28:23.703Z,27.40
2018-04-14T11:30:53.788Z,27.30
2018-04-14T11:33:29.422Z,29.40
2018-04-14T11:36:07.037Z,29.30
2018-04-14T11:38:39.328Z,27.40
2018-04-14T11:41:10.781Z,27.40
2018-04-14T11:43:42.833Z,27.20
2018-04-14T11:46:12.218Z,26.30
2018-04-14T11:48:44.683Z,25.80
2018-04-14T11:51:14.019Z,25.40
2018-04-14T11:53:50.346Z,26.00
2018-04-14T11:56:22.838Z,26.00
2018-04-14T11:58:55.206Z,25.40
2018-04-14T12:01:27.518Z,25.10
2018-04-14T12:03:57.941Z,25.10
2018-04-14T12:06:30.900Z,26.40
2018-04-14T12:09:00.823Z,27.10
2018-04-14T12:11:34.392Z,25.50
2018-04-14T12:14:04.462Z,25.50
2018-04-14T12:16:38.632Z,25.10
2018-04-14T12:19:09.739Z,25.60
2018-04-14T12:21:42.582Z,25.50
2018-04-14T12:24:14.687Z,26.50
2018-04-14T12:26:46.494Z,28.00
2018-04-14T12:29:18.367Z,29.00
2018-04-14T12:31:49.581Z,28.90
2018-04-14T12:34:21.234Z,28.20
2018-04-14T12:36:51.042Z,28.20
2018-04-14T12:39:21.734Z,27.10
2018-04-14T12:41:52.559Z,26.90
2018-04-14T12:44:23.288Z,25.30
2018-04-14T12:46:56.553Z,24.60
2018-04-14T12:49:27.916Z,24.60
2018-04-14T12:51:59.483Z,23.80
2018-04-14T12:54:30.786Z,23.90
2018-04-14T12:57:01.652Z,23.90
2018-04-14T12:59:35.456Z,24.70
2018-04-14T13:02:05.793Z,25.20
2018-04-14T13:04:35.892Z,26.00
2018-04-14T13:07:12.732Z,26.70
2018-04-14T13:09:47.118Z,27.40
2018-04-14T13:12:17.725Z,27.30
2018-04-14T13:14:53.953Z,27.90
2018-04-14T13:17:31.699Z,28.00
2018-04-14T13:20:04.272Z,28.00
2018-04-14T13:22:35.884Z,28.70
2018-04-14T13:25:12.514Z,28.50
2018-04-14T13:27:45.033Z,28.20
2018-04-14T13:30:14.688Z,26.50
2018-04-14T13:32:46.078Z,25.60
2018-04-14T13:35:19.007Z,25.50
2018-04-14T13:37:50.745Z,24.50
2018-04-14T13:40:25.757Z,24.30
2018-04-14T13:42:55.676Z,24.80
2018-04-14T13:45:25.493Z,24.40
2018-04-14T13:47:56.071Z,23.40
2018-04-14T13:50:26.424Z,23.50
2018-04-14T13:52:57.772Z,23.30
2018-04-14T13:55:33.742Z,24.40
2018-04-14T13:58:11.226Z,24.40
2018-04-14T14:00:45.480Z,24.40
2018-04-14T14:03:22.870Z,23.70
2018-04-14T14:05:54.825Z,23.10
2018-04-14T14:08:34.423Z,23.40
2018-04-14T14:11:06.515Z,23.20
2018-04-14T14:13:38.621Z,23.10
2018-04-14T14:19:01.932Z,22.90
2018-04-14T14:21:41.914Z,22.20
2018-04-14T14:27:19.834Z,22.10
2018-04-14T14:30:05.644Z,22.30
2018-04-14T14:32:47.080Z,22.30
2018-04-14T14:35:28.946Z,22.30
2018-04-14T14:37:59.793Z,22.30
2018-04-14T14:40:35.123Z,22.40
2018-04-14T14:43:11.184Z,22.30
2018-04-14T14:45:42.580Z,22.00
2018-04-14T14:48:14.795Z,22.00
2018-04-14T14:50:44.739Z,22.10
2018-04-14T14:53:21.348Z,22.30
2018-04-14T14:55:57.046Z,21.70
2018-04-14T14:58:41.081Z,21.60
2018-04-14T15:01:12.223Z,21.50
2018-04-14T15:03:48.371Z,21.00
2018-04-14T15:06:20.937Z,21.10
2018-04-14T15:08:53.539Z,21.30
2018-04-14T15:11:23.766Z,21.20
2018-04-14T15:13:55.220Z,21.40
2018-04-14T15:16:29.562Z,21.50
2018-04-14T15:19:07.587Z,21.60
2018-04-14T15:21:38.134Z,21.90
2018-04-14T15:24:15.720Z,22.10
2018-04-14T15:26:48.213Z,22.00
2018-04-14T15:29:26.394Z,21.40
2018-04-14T15:31:57.485Z,20.90
2018-04-14T15:34:33.057Z,20.90
2018-04-14T15:37:05.431Z,21.10
2018-04-14T15:39:35.422Z,21.00
2018-04-14T15:42:08.639Z,21.10
2018-04-14T15:44:45.101Z,21.20
2018-04-14T15:47:22.087Z,20.80
2018-04-14T15:49:54.336Z,20.80
2018-04-14T15:52:25.475Z,20.50
2018-04-14T15:54:57.902Z,20.50
2018-04-14T15:57:30.843Z,20.50
2018-04-14T16:00:11.337Z,20.50
2018-04-14T16:02:44.858Z,20.50
2018-04-14T16:05:21.673Z,20.40
2018-04-14T16:08:04.112Z,20.50
2018-04-14T16:10:38.825Z,20.40
2018-04-14T16:13:10.154Z,20.30
2018-04-14T16:15:48.470Z,20.10
2018-04-14T16:18:20.775Z,20.10
2018-04-14T16:20:52.867Z,20.20
2018-04-14T16:23:25.030Z,20.00
2018-04-14T16:26:00.495Z,20.00
2018-04-14T16:28:38.860Z,19.80
2018-04-14T16:31:13.995Z,19.90
2018-04-14T16:33:51.808Z,20.10
2018-04-14T16:36:40.859Z,20.30
2018-04-14T16:39:14.913Z,20.30
2018-04-14T16:41:57.348Z,20.20
2018-04-14T16:44:28.648Z,20.10
2018-04-14T16:47:10.188Z,20.20
2018-04-14T16:49:52.989Z,20.20
2018-04-14T16:52:25.005Z,19.90
2018-04-14T16:54:59.358Z,19.90
2018-04-14T16:57:30.755Z,20.00
2018-04-14T17:00:05.141Z,20.00
2018-04-14T17:02:47.980Z,19.90
2018-04-14T17:05:22.645Z,19.80
2018-04-14T17:07:57.360Z,19.80
2018-04-14T17:10:39.312Z,19.70
2018-04-14T17:13:13.924Z,19.60
2018-04-14T17:15:48.048Z,19.50
2018-04-14T17:18:19.532Z,19.40
2018-04-14T17:20:57.218Z,19.50
2018-04-14T17:23:29.287Z,19.40
2018-04-14T17:26:00.492Z,19.40
2018-04-14T17:28:33.671Z,19.30
2018-04-14T17:31:06.878Z,19.40
2018-04-14T17:33:39.702Z,19.20
2018-04-14T17:36:20.431Z,19.40
2018-04-14T17:38:54.050Z,19.50
2018-04-14T17:41:28.971Z,19.60
2018-04-14T17:44:09.960Z,19.60
2018-04-14T17:46:41.665Z,19.70
2018-04-14T17:49:16.965Z,19.60
2018-04-14T17:51:49.933Z,19.50
2018-04-14T17:54:31.313Z,19.60
2018-04-14T17:57:16.356Z,19.70
2018-04-14T17:59:49.096Z,19.70
2018-04-14T18:02:25.009Z,19.40
2018-04-14T18:05:01.001Z,19.40
2018-04-14T18:07:32.248Z,19.30
2018-04-14T18:10:09.174Z,19.30
2018-04-14T18:12:41.325Z,19.20
2018-04-14T18:15:17.109Z,19.20
2018-04-14T18:18:02.910Z,19.20
2018-04-14T18:20:39.193Z,19.20
2018-04-14T18:23:24.177Z,19.30
2018-04-14T18:26:32.419Z,19.40
2018-04-14T18:29:10.556Z,19.50
2018-04-14T18:31:45.778Z,19.60
2018-04-14T18:34:20.919Z,19.60
2018-04-14T18:37:00.916Z,19.50
2018-04-14T18:39:37.684Z,19.40
2018-04-14T18:42:29.422Z,19.40
2018-04-14T18:45:19.875Z,19.50
2018-04-14T18:48:08.145Z,19.40
2018-04-14T18:53:59.216Z,19.30
2018-04-14T18:56:49.212Z,19.40
2018-04-14T18:59:39.931Z,19.40
2018-04-14T19:02:24.006Z,19.40
2018-04-14T19:05:17.990Z,19.40
2018-04-14T19:08:04.595Z,19.30
2018-04-14T19:10:47.243Z,19.30
2018-04-14T19:13:18.883Z,19.30
2018-04-14T19:15:50.144Z,19.20
2018-04-14T19:18:22.907Z,19.30
2018-04-14T19:20:55.290Z,19.30
2018-04-14T19:23:28.012Z,19.40
2018-04-14T19:26:01.366Z,19.30
2018-04-14T19:28:33.881Z,19.30
2018-04-14T19:31:27.661Z,19.30
2018-04-14T19:34:01.648Z,19.30
2018-04-14T19:36:37.201Z,19.20
2018-04-14T19:39:11.873Z,19.20
2018-04-14T19:41:58.540Z,19.10
2018-04-14T19:44:38.579Z,19.10
2018-04-14T19:47:33.393Z,19.10
2018-04-14T19:50:21.229Z,19.00
2018-04-14T19:53:04.997Z,18.90
2018-04-14T19:55:36.350Z,18.90
2018-04-14T19:58:12.036Z,18.80
2018-04-14T20:00:53.355Z,18.80
2018-04-14T20:03:28.687Z,18.80
2018-04-14T20:06:04.868Z,18.80
2018-04-14T20:08:40.865Z,18.80
2018-04-14T20:11:14.611Z,18.80
2018-04-14T20:13:51.065Z,18.80
2018-04-14T20:16:25.524Z,18.70
2018-04-14T20:19:03.575Z,18.70
2018-04-14T20:24:27.214Z,18.70
2018-04-14T20:27:15.040Z,18.70
2018-04-14T20:29:52.700Z,18.70
2018-04-14T20:32:26.623Z,18.80
2018-04-14T20:35:01.827Z,18.80
2018-04-14T20:37:41.766Z,18.80
2018-04-14T20:40:20.796Z,18.80
2018-04-14T20:42:55.020Z,18.80
2018-04-14T20:45:29.590Z,18.80
2018-04-14T20:48:32.798Z,18.80
2018-04-14T20:51:09.885Z,18.80
2018-04-14T20:54:04.357Z,18.80
2018-04-14T20:56:42.262Z,18.60
2018-04-14T20:59:27.967Z,18.60
2018-04-14T21:02:12.305Z,18.80
2018-04-14T21:04:46.799Z,18.80
2018-04-14T21:07:20.836Z,18.90
2018-04-14T21:10:09.104Z,18.90
2018-04-14T21:12:50.509Z,18.90
2018-04-14T21:15:23.145Z,19.00
2018-04-14T21:17:54.746Z,18.90
2018-04-14T21:23:33.726Z,18.90
2018-04-14T21:26:08.303Z,18.90
2018-04-14T21:28:40.419Z,18.80
2018-04-14T21:31:11.557Z,18.70
2018-04-14T21:33:49.155Z,18.70
2018-04-14T21:36:22.827Z,18.60
2018-04-14T21:39:09.651Z,18.60
2018-04-14T21:41:46.773Z,18.50
2018-04-14T21:44:26.165Z,18.40
2018-04-14T21:47:22.905Z,18.40
2018-04-14T21:49:56.494Z,18.40
2018-04-14T21:52:35.541Z,18.40
2018-04-14T21:55:07.084Z,18.30
2018-04-14T21:57:38.188Z,18.40
2018-04-14T22:00:10.953Z,18.40
2018-04-14T22:02:45.522Z,18.40
2018-04-14T22:05:16.478Z,18.30
2018-04-14T22:07:55.347Z,18.20
2018-04-14T22:10:46.204Z,18.10
2018-04-14T22:13:37.696Z,18.00
2018-04-14T22:16:25.707Z,17.70
2018-04-14T22:19:04.151Z,17.70
2018-04-14T22:21:39.689Z,17.40
2018-04-14T22:24:17.084Z,17.40
2018-04-14T22:26:54.757Z,17.50
2018-04-14T22:29:42.286Z,17.50
2018-04-14T22:32:22.831Z,17.40
2018-04-14T22:35:13.437Z,17.20
2018-04-14T22:37:49.315Z,17.20
2018-04-14T22:40:49.843Z,17.40
2018-04-14T22:43:44.275Z,17.30
2018-04-14T22:46:25.950Z,17.20
2018-04-14T22:48:58.991Z,17.20
2018-04-14T22:51:37.439Z,17.10
2018-04-14T22:54:19.321Z,16.90
2018-04-14T22:57:02.673Z,16.70
2018-04-14T22:59:35.126Z,16.60
2018-04-14T23:02:08.138Z,16.60
2018-04-14T23:04:48.725Z,16.60
2018-04-14T23:07:27.807Z,16.60
2018-04-14T23:10:08.288Z,16.60
2018-04-14T23:12:41.217Z,16.60
2018-04-14T23:15:15.294Z,16.50
2018-04-14T23:17:59.683Z,16.30
2018-04-14T23:20:32.197Z,16.20
2018-04-14T23:23:06.917Z,16.00
2018-04-14T23:25:47.754Z,16.00
2018-04-14T23:28:21.526Z,16.00
2018-04-14T23:31:00.141Z,15.80
2018-04-14T23:33:31.808Z,15.60
2018-04-14T23:36:03.127Z,15.50
2018-04-14T23:38:35.779Z,15.40
2018-04-14T23:41:07.379Z,15.20
2018-04-14T23:43:39.703Z,15.10
2018-04-14T23:46:12.236Z,14.90
2018-04-14T23:48:43.870Z,14.80
2018-04-14T23:51:15.185Z,14.40
2018-04-14T23:53:47.605Z,14.40
2018-04-14T23:56:23.444Z,14.30
2018-04-14T23:58:54.827Z,14.20
